sensor_id;sensor_type;location;lat;lon;timestamp;P1;durP1;ratioP1;P2;durP2;ratioP2
23370;SDS011;11858;51.056;3.712;2022-09-09T00:04:57;14.70;;;11.30;;
23370;SDS011;11858;51.056;3.712;2022-09-09T00:07:55;12.00;;;10.98;;
23370;SDS011;11858;51.056;3.712;2022-09-09T00:11:01;10.85;;;8.00;;
23370;SDS011;11858;51.056;3.712;2022-09-09T00:13:37;9.45;;;7.80;;
23370;SDS011;11858;51.056;3.712;2022-09-09T00:16:17;10.32;;;8.60;;
23370;SDS011;11858;51.056;3.712;2022-09-09T00:19:26;8.85;;;8.07;;
23370;SDS011;11858;51.056;3.712;2022-09-09T00:22:16;10.82;;;8.50;;
23370;SDS011;11858;51.056;3.712;2022-09-09T00:28:13;12.32;;;11.10;;
23370;SDS011;11858;51.056;3.712;2022-09-09T00:30:53;12.45;;;11.05;;
23370;SDS011;11858;51.056;3.712;2022-09-09T00:33:47;12.10;;;11.20;;
23370;SDS011;11858;51.056;3.712;2022-09-09T00:36:18;14.57;;;11.90;;
23370;SDS011;11858;51.056;3.712;2022-09-09T00:39:31;13.18;;;11.73;;
23370;SDS011;11858;51.056;3.712;2022-09-09T00:42:40;14.07;;;11.70;;
23370;SDS011;11858;51.056;3.712;2022-09-09T00:48:08;12.98;;;11.65;;
23370;SDS011;11858;51.056;3.712;2022-09-09T01:06:27;12.90;;;11.63;;
23370;SDS011;11858;51.056;3.712;2022-09-09T01:12:41;10.63;;;9.45;;
23370;SDS011;11858;51.056;3.712;2022-09-09T01:15:26;9.57;;;7.90;;
23370;SDS011;11858;51.056;3.712;2022-09-09T01:23:41;11.07;;;10.02;;
23370;SDS011;11858;51.056;3.712;2022-09-09T01:29:43;13.35;;;11.25;;
23370;SDS011;11858;51.056;3.712;2022-09-09T01:38:21;12.15;;;11.02;;
23370;SDS011;11858;51.056;3.712;2022-09-09T01:40:49;14.77;;;10.98;;
23370;SDS011;11858;51.056;3.712;2022-09-09T01:43:28;14.98;;;11.60;;
23370;SDS011;11858;51.056;3.712;2022-09-09T01:46:04;12.65;;;11.50;;
23370;SDS011;11858;51.056;3.712;2022-09-09T01:48:39;12.93;;;10.98;;
23370;SDS011;11858;51.056;3.712;2022-09-09T01:51:13;11.82;;;10.65;;
23370;SDS011;11858;51.056;3.712;2022-09-09T01:53:46;11.90;;;10.75;;
23370;SDS011;11858;51.056;3.712;2022-09-09T02:02:17;9.68;;;8.45;;
23370;SDS011;11858;51.056;3.712;2022-09-09T02:04:57;10.80;;;8.90;;
23370;SDS011;11858;51.056;3.712;2022-09-09T02:07:47;12.70;;;9.25;;
23370;SDS011;11858;51.056;3.712;2022-09-09T02:10:55;10.68;;;9.25;;
23370;SDS011;11858;51.056;3.712;2022-09-09T02:13:28;15.88;;;10.73;;
23370;SDS011;11858;51.056;3.712;2022-09-09T02:22:03;12.23;;;11.00;;
23370;SDS011;11858;51.056;3.712;2022-09-09T02:24:31;11.63;;;10.48;;
23370;SDS011;11858;51.056;3.712;2022-09-09T02:27:08;13.15;;;11.02;;
23370;SDS011;11858;51.056;3.712;2022-09-09T02:29:41;16.38;;;11.80;;
23370;SDS011;11858;51.056;3.712;2022-09-09T02:32:20;12.35;;;11.10;;
23370;SDS011;11858;51.056;3.712;2022-09-09T02:35:28;17.05;;;11.23;;
23370;SDS011;11858;51.056;3.712;2022-09-09T02:38:10;18.88;;;12.10;;
23370;SDS011;11858;51.056;3.712;2022-09-09T02:40:47;16.00;;;11.48;;
23370;SDS011;11858;51.056;3.712;2022-09-09T02:43:19;13.05;;;10.93;;
23370;SDS011;11858;51.056;3.712;2022-09-09T02:45:59;13.55;;;11.38;;
23370;SDS011;11858;51.056;3.712;2022-09-09T02:48:47;11.93;;;10.15;;
23370;SDS011;11858;51.056;3.712;2022-09-09T02:59:42;13.75;;;11.43;;
23370;SDS011;11858;51.056;3.712;2022-09-09T03:02:17;16.65;;;14.95;;
23370;SDS011;11858;51.056;3.712;2022-09-09T03:04:54;18.77;;;12.85;;
23370;SDS011;11858;51.056;3.712;2022-09-09T03:07:23;21.40;;;14.55;;
23370;SDS011;11858;51.056;3.712;2022-09-09T03:09:50;16.02;;;13.35;;
23370;SDS011;11858;51.056;3.712;2022-09-09T03:12:21;18.08;;;12.55;;
23370;SDS011;11858;51.056;3.712;2022-09-09T03:15:05;14.63;;;11.52;;
23370;SDS011;11858;51.056;3.712;2022-09-09T03:17:47;18.63;;;11.93;;
23370;SDS011;11858;51.056;3.712;2022-09-09T03:20:36;15.80;;;13.98;;
23370;SDS011;11858;51.056;3.712;2022-09-09T03:23:04;18.30;;;13.80;;
23370;SDS011;11858;51.056;3.712;2022-09-09T03:28:25;18.60;;;14.15;;
23370;SDS011;11858;51.056;3.712;2022-09-09T03:31:28;15.23;;;13.15;;
23370;SDS011;11858;51.056;3.712;2022-09-09T03:33:57;15.63;;;10.90;;
23370;SDS011;11858;51.056;3.712;2022-09-09T03:36:30;16.10;;;13.85;;
23370;SDS011;11858;51.056;3.712;2022-09-09T03:39:23;17.90;;;11.80;;
23370;SDS011;11858;51.056;3.712;2022-09-09T03:41:51;15.40;;;12.48;;
23370;SDS011;11858;51.056;3.712;2022-09-09T03:44:22;17.38;;;13.02;;
23370;SDS011;11858;51.056;3.712;2022-09-09T03:46:55;18.00;;;13.32;;
23370;SDS011;11858;51.056;3.712;2022-09-09T03:49:46;19.38;;;13.57;;
23370;SDS011;11858;51.056;3.712;2022-09-09T03:52:16;17.63;;;13.32;;
23370;SDS011;11858;51.056;3.712;2022-09-09T03:55:25;20.65;;;14.23;;
23370;SDS011;11858;51.056;3.712;2022-09-09T03:58:03;19.40;;;13.75;;
23370;SDS011;11858;51.056;3.712;2022-09-09T04:01:11;18.95;;;13.88;;
23370;SDS011;11858;51.056;3.712;2022-09-09T04:04:08;15.35;;;13.52;;
23370;SDS011;11858;51.056;3.712;2022-09-09T04:07:03;16.40;;;13.95;;
23370;SDS011;11858;51.056;3.712;2022-09-09T04:09:38;19.00;;;14.02;;
23370;SDS011;11858;51.056;3.712;2022-09-09T04:12:22;17.67;;;11.45;;
23370;SDS011;11858;51.056;3.712;2022-09-09T04:15:13;16.48;;;11.32;;
23370;SDS011;11858;51.056;3.712;2022-09-09T04:17:49;17.40;;;10.77;;
23370;SDS011;11858;51.056;3.712;2022-09-09T04:20:48;21.42;;;11.60;;
23370;SDS011;11858;51.056;3.712;2022-09-09T04:23:15;23.02;;;11.88;;
23370;SDS011;11858;51.056;3.712;2022-09-09T04:25:45;19.73;;;12.15;;
23370;SDS011;11858;51.056;3.712;2022-09-09T04:28:15;17.38;;;12.00;;
23370;SDS011;11858;51.056;3.712;2022-09-09T04:30:58;17.30;;;11.18;;
23370;SDS011;11858;51.056;3.712;2022-09-09T04:34:03;18.50;;;11.77;;
23370;SDS011;11858;51.056;3.712;2022-09-09T04:36:55;19.60;;;12.10;;
23370;SDS011;11858;51.056;3.712;2022-09-09T04:39:26;14.10;;;11.65;;
23370;SDS011;11858;51.056;3.712;2022-09-09T04:42:16;15.43;;;11.10;;
23370;SDS011;11858;51.056;3.712;2022-09-09T04:44:50;20.75;;;11.43;;
23370;SDS011;11858;51.056;3.712;2022-09-09T04:47:43;17.10;;;11.38;;
23370;SDS011;11858;51.056;3.712;2022-09-09T04:50:26;21.70;;;12.05;;
23370;SDS011;11858;51.056;3.712;2022-09-09T04:52:54;19.08;;;12.13;;
23370;SDS011;11858;51.056;3.712;2022-09-09T04:55:49;18.48;;;12.40;;
23370;SDS011;11858;51.056;3.712;2022-09-09T04:58:47;21.15;;;12.10;;
23370;SDS011;11858;51.056;3.712;2022-09-09T05:01:37;18.27;;;12.00;;
23370;SDS011;11858;51.056;3.712;2022-09-09T05:09:59;16.23;;;10.77;;
23370;SDS011;11858;51.056;3.712;2022-09-09T05:12:51;22.95;;;11.57;;
23370;SDS011;11858;51.056;3.712;2022-09-09T05:15:50;21.63;;;11.55;;
23370;SDS011;11858;51.056;3.712;2022-09-09T05:18:20;18.33;;;10.18;;
23370;SDS011;11858;51.056;3.712;2022-09-09T05:21:15;16.02;;;10.50;;
23370;SDS011;11858;51.056;3.712;2022-09-09T05:23:44;17.83;;;11.13;;
23370;SDS011;11858;51.056;3.712;2022-09-09T05:26:31;22.08;;;10.45;;
23370;SDS011;11858;51.056;3.712;2022-09-09T05:29:06;21.23;;;12.35;;
23370;SDS011;11858;51.056;3.712;2022-09-09T05:31:35;24.67;;;12.60;;
23370;SDS011;11858;51.056;3.712;2022-09-09T05:34:01;20.95;;;12.98;;
23370;SDS011;11858;51.056;3.712;2022-09-09T05:36:34;22.13;;;12.68;;
23370;SDS011;11858;51.056;3.712;2022-09-09T05:39:10;24.25;;;12.15;;
23370;SDS011;11858;51.056;3.712;2022-09-09T05:41:48;18.20;;;10.70;;
23370;SDS011;11858;51.056;3.712;2022-09-09T05:44:16;19.55;;;11.98;;
23370;SDS011;11858;51.056;3.712;2022-09-09T05:46:49;16.00;;;10.88;;
23370;SDS011;11858;51.056;3.712;2022-09-09T05:49:14;18.38;;;11.95;;
23370;SDS011;11858;51.056;3.712;2022-09-09T05:51:40;21.67;;;12.27;;
23370;SDS011;11858;51.056;3.712;2022-09-09T05:54:08;15.73;;;11.25;;
23370;SDS011;11858;51.056;3.712;2022-09-09T05:56:34;17.65;;;11.00;;
23370;SDS011;11858;51.056;3.712;2022-09-09T05:58:59;15.43;;;10.65;;
23370;SDS011;11858;51.056;3.712;2022-09-09T06:01:30;18.27;;;11.63;;
23370;SDS011;11858;51.056;3.712;2022-09-09T06:04:01;16.60;;;13.13;;
23370;SDS011;11858;51.056;3.712;2022-09-09T06:06:33;24.17;;;18.05;;
23370;SDS011;11858;51.056;3.712;2022-09-09T06:09:02;40.33;;;35.35;;
23370;SDS011;11858;51.056;3.712;2022-09-09T06:11:31;32.95;;;29.80;;
23370;SDS011;11858;51.056;3.712;2022-09-09T06:14:01;42.70;;;34.05;;
23370;SDS011;11858;51.056;3.712;2022-09-09T06:16:28;44.58;;;39.83;;
23370;SDS011;11858;51.056;3.712;2022-09-09T06:18:58;46.75;;;37.17;;
23370;SDS011;11858;51.056;3.712;2022-09-09T06:21:29;54.42;;;42.47;;
23370;SDS011;11858;51.056;3.712;2022-09-09T06:23:57;44.00;;;37.95;;
23370;SDS011;11858;51.056;3.712;2022-09-09T06:26:24;46.45;;;37.97;;
23370;SDS011;11858;51.056;3.712;2022-09-09T06:28:52;44.58;;;39.97;;
23370;SDS011;11858;51.056;3.712;2022-09-09T06:31:20;50.25;;;40.20;;
23370;SDS011;11858;51.056;3.712;2022-09-09T06:33:48;50.03;;;41.42;;
23370;SDS011;11858;51.056;3.712;2022-09-09T06:36:16;43.92;;;39.20;;
23370;SDS011;11858;51.056;3.712;2022-09-09T06:38:44;53.80;;;43.15;;
23370;SDS011;11858;51.056;3.712;2022-09-09T06:41:11;58.13;;;46.20;;
23370;SDS011;11858;51.056;3.712;2022-09-09T06:43:38;47.50;;;41.10;;
23370;SDS011;11858;51.056;3.712;2022-09-09T06:46:15;49.50;;;41.22;;
23370;SDS011;11858;51.056;3.712;2022-09-09T06:48:43;47.03;;;38.05;;
23370;SDS011;11858;51.056;3.712;2022-09-09T06:51:11;47.05;;;37.30;;
23370;SDS011;11858;51.056;3.712;2022-09-09T06:53:41;41.67;;;34.53;;
23370;SDS011;11858;51.056;3.712;2022-09-09T06:59:05;38.25;;;34.10;;
23370;SDS011;11858;51.056;3.712;2022-09-09T07:01:37;41.95;;;33.90;;
23370;SDS011;11858;51.056;3.712;2022-09-09T07:04:08;42.85;;;38.55;;
23370;SDS011;11858;51.056;3.712;2022-09-09T07:06:40;40.95;;;36.78;;
23370;SDS011;11858;51.056;3.712;2022-09-09T07:09:11;38.15;;;34.55;;
23370;SDS011;11858;51.056;3.712;2022-09-09T07:11:42;38.83;;;34.47;;
23370;SDS011;11858;51.056;3.712;2022-09-09T07:14:13;39.65;;;32.95;;
23370;SDS011;11858;51.056;3.712;2022-09-09T07:16:43;41.38;;;32.92;;
23370;SDS011;11858;51.056;3.712;2022-09-09T07:19:10;35.33;;;30.85;;
23370;SDS011;11858;51.056;3.712;2022-09-09T07:21:37;33.38;;;30.08;;
23370;SDS011;11858;51.056;3.712;2022-09-09T07:24:05;32.45;;;29.55;;
23370;SDS011;11858;51.056;3.712;2022-09-09T07:26:32;30.20;;;27.42;;
23370;SDS011;11858;51.056;3.712;2022-09-09T07:28:59;26.77;;;24.35;;
23370;SDS011;11858;51.056;3.712;2022-09-09T07:31:26;22.60;;;20.33;;
23370;SDS011;11858;51.056;3.712;2022-09-09T07:33:56;24.67;;;21.15;;
23370;SDS011;11858;51.056;3.712;2022-09-09T07:36:30;21.55;;;18.95;;
23370;SDS011;11858;51.056;3.712;2022-09-09T07:39:02;18.42;;;16.63;;
23370;SDS011;11858;51.056;3.712;2022-09-09T07:41:31;16.38;;;13.77;;
23370;SDS011;11858;51.056;3.712;2022-09-09T07:44:11;14.52;;;12.05;;
23370;SDS011;11858;51.056;3.712;2022-09-09T07:46:42;15.02;;;10.25;;
23370;SDS011;11858;51.056;3.712;2022-09-09T07:49:10;13.73;;;9.90;;
23370;SDS011;11858;51.056;3.712;2022-09-09T07:51:40;15.68;;;10.07;;
23370;SDS011;11858;51.056;3.712;2022-09-09T07:54:09;14.95;;;7.38;;
23370;SDS011;11858;51.056;3.712;2022-09-09T07:56:37;18.63;;;7.47;;
23370;SDS011;11858;51.056;3.712;2022-09-09T07:59:04;17.38;;;7.32;;
23370;SDS011;11858;51.056;3.712;2022-09-09T08:01:38;12.02;;;7.75;;
23370;SDS011;11858;51.056;3.712;2022-09-09T08:04:06;14.40;;;8.23;;
23370;SDS011;11858;51.056;3.712;2022-09-09T08:06:36;11.02;;;7.68;;
23370;SDS011;11858;51.056;3.712;2022-09-09T08:09:04;12.60;;;8.98;;
23370;SDS011;11858;51.056;3.712;2022-09-09T08:11:31;13.10;;;9.35;;
23370;SDS011;11858;51.056;3.712;2022-09-09T08:13:58;17.77;;;12.45;;
23370;SDS011;11858;51.056;3.712;2022-09-09T08:16:34;15.75;;;12.40;;
23370;SDS011;11858;51.056;3.712;2022-09-09T08:19:01;22.17;;;17.48;;
23370;SDS011;11858;51.056;3.712;2022-09-09T08:21:29;21.20;;;17.40;;
23370;SDS011;11858;51.056;3.712;2022-09-09T08:23:57;18.40;;;16.55;;
23370;SDS011;11858;51.056;3.712;2022-09-09T08:26:27;21.15;;;16.63;;
23370;SDS011;11858;51.056;3.712;2022-09-09T08:31:22;20.27;;;18.00;;
23370;SDS011;11858;51.056;3.712;2022-09-09T08:33:55;18.40;;;14.13;;
23370;SDS011;11858;51.056;3.712;2022-09-09T08:36:25;16.65;;;13.65;;
23370;SDS011;11858;51.056;3.712;2022-09-09T08:38:53;14.75;;;11.82;;
23370;SDS011;11858;51.056;3.712;2022-09-09T08:44:14;15.82;;;11.25;;
23370;SDS011;11858;51.056;3.712;2022-09-09T08:47:09;12.45;;;11.15;;
23370;SDS011;11858;51.056;3.712;2022-09-09T08:58:20;14.07;;;10.73;;
23370;SDS011;11858;51.056;3.712;2022-09-09T09:12:01;12.90;;;11.25;;
23370;SDS011;11858;51.056;3.712;2022-09-09T09:14:33;12.20;;;11.07;;
23370;SDS011;11858;51.056;3.712;2022-09-09T09:17:01;12.38;;;10.40;;
23370;SDS011;11858;51.056;3.712;2022-09-09T09:19:29;12.40;;;10.20;;
23370;SDS011;11858;51.056;3.712;2022-09-09T09:27:12;15.27;;;10.50;;
23370;SDS011;11858;51.056;3.712;2022-09-09T09:29:40;12.27;;;9.90;;
23370;SDS011;11858;51.056;3.712;2022-09-09T09:32:10;12.90;;;8.93;;
23370;SDS011;11858;51.056;3.712;2022-09-09T09:34:40;10.25;;;8.15;;
23370;SDS011;11858;51.056;3.712;2022-09-09T09:37:11;9.90;;;8.90;;
23370;SDS011;11858;51.056;3.712;2022-09-09T09:39:44;10.43;;;8.57;;
23370;SDS011;11858;51.056;3.712;2022-09-09T09:42:15;12.65;;;8.82;;
23370;SDS011;11858;51.056;3.712;2022-09-09T09:44:42;10.13;;;8.88;;
23370;SDS011;11858;51.056;3.712;2022-09-09T09:49:39;9.95;;;8.00;;
23370;SDS011;11858;51.056;3.712;2022-09-09T09:52:16;9.93;;;8.32;;
23370;SDS011;11858;51.056;3.712;2022-09-09T09:54:46;9.20;;;8.25;;
23370;SDS011;11858;51.056;3.712;2022-09-09T09:57:13;11.73;;;8.40;;
23370;SDS011;11858;51.056;3.712;2022-09-09T09:59:41;10.00;;;8.75;;
23370;SDS011;11858;51.056;3.712;2022-09-09T10:02:20;12.88;;;8.93;;
23370;SDS011;11858;51.056;3.712;2022-09-09T10:05:35;11.95;;;8.90;;
23370;SDS011;11858;51.056;3.712;2022-09-09T10:07:41;10.40;;;9.30;;
23370;SDS011;11858;51.056;3.712;2022-09-09T10:10:16;16.85;;;9.02;;
23370;SDS011;11858;51.056;3.712;2022-09-09T10:13:24;12.85;;;8.88;;
23370;SDS011;11858;51.056;3.712;2022-09-09T10:30:47;9.85;;;8.90;;
23370;SDS011;11858;51.056;3.712;2022-09-09T10:36:23;10.85;;;8.90;;
23370;SDS011;11858;51.056;3.712;2022-09-09T10:42:06;11.40;;;10.20;;
23370;SDS011;11858;51.056;3.712;2022-09-09T10:56:42;11.45;;;9.00;;
23370;SDS011;11858;51.056;3.712;2022-09-09T10:59:15;10.48;;;9.02;;
23370;SDS011;11858;51.056;3.712;2022-09-09T11:01:57;14.90;;;10.55;;
23370;SDS011;11858;51.056;3.712;2022-09-09T11:04:54;12.38;;;11.10;;
23370;SDS011;11858;51.056;3.712;2022-09-09T11:07:37;11.80;;;10.60;;
23370;SDS011;11858;51.056;3.712;2022-09-09T11:10:15;11.25;;;9.73;;
23370;SDS011;11858;51.056;3.712;2022-09-09T11:12:54;10.82;;;9.77;;
23370;SDS011;11858;51.056;3.712;2022-09-09T11:15:36;11.07;;;10.07;;
23370;SDS011;11858;51.056;3.712;2022-09-09T11:18:17;10.60;;;9.68;;
23370;SDS011;11858;51.056;3.712;2022-09-09T11:20:58;12.27;;;9.70;;
23370;SDS011;11858;51.056;3.712;2022-09-09T11:23:28;11.90;;;10.75;;
23370;SDS011;11858;51.056;3.712;2022-09-09T11:25:59;11.93;;;10.60;;
23370;SDS011;11858;51.056;3.712;2022-09-09T11:34:39;11.23;;;10.10;;
23370;SDS011;11858;51.056;3.712;2022-09-09T11:40:30;11.45;;;10.45;;
23370;SDS011;11858;51.056;3.712;2022-09-09T11:43:04;11.75;;;10.50;;
23370;SDS011;11858;51.056;3.712;2022-09-09T11:45:42;11.23;;;10.32;;
23370;SDS011;11858;51.056;3.712;2022-09-09T11:48:26;10.93;;;10.10;;
23370;SDS011;11858;51.056;3.712;2022-09-09T11:51:04;12.10;;;11.15;;
23370;SDS011;11858;51.056;3.712;2022-09-09T11:53:32;12.38;;;11.35;;
23370;SDS011;11858;51.056;3.712;2022-09-09T11:56:00;12.90;;;11.75;;
23370;SDS011;11858;51.056;3.712;2022-09-09T11:58:39;12.55;;;11.40;;
23370;SDS011;11858;51.056;3.712;2022-09-09T12:01:14;11.70;;;10.90;;
23370;SDS011;11858;51.056;3.712;2022-09-09T12:03:54;12.82;;;10.65;;
23370;SDS011;11858;51.056;3.712;2022-09-09T12:06:31;13.13;;;12.23;;
23370;SDS011;11858;51.056;3.712;2022-09-09T12:08:58;12.55;;;11.65;;
23370;SDS011;11858;51.056;3.712;2022-09-09T12:11:43;12.30;;;11.40;;
23370;SDS011;11858;51.056;3.712;2022-09-09T12:14:19;12.30;;;11.20;;
23370;SDS011;11858;51.056;3.712;2022-09-09T12:17:17;12.35;;;11.20;;
23370;SDS011;11858;51.056;3.712;2022-09-09T12:19:45;11.57;;;10.77;;
23370;SDS011;11858;51.056;3.712;2022-09-09T12:22:27;12.63;;;11.32;;
23370;SDS011;11858;51.056;3.712;2022-09-09T12:25:09;12.65;;;11.60;;
23370;SDS011;11858;51.056;3.712;2022-09-09T12:27:51;11.88;;;10.90;;
23370;SDS011;11858;51.056;3.712;2022-09-09T12:33:12;11.40;;;10.60;;
23370;SDS011;11858;51.056;3.712;2022-09-09T12:35:42;12.30;;;11.10;;
23370;SDS011;11858;51.056;3.712;2022-09-09T12:38:13;12.10;;;11.00;;
23370;SDS011;11858;51.056;3.712;2022-09-09T12:40:53;12.05;;;11.10;;
23370;SDS011;11858;51.056;3.712;2022-09-09T12:43:21;11.60;;;10.70;;
23370;SDS011;11858;51.056;3.712;2022-09-09T12:45:52;10.80;;;9.90;;
23370;SDS011;11858;51.056;3.712;2022-09-09T12:48:37;11.13;;;10.15;;
23370;SDS011;11858;51.056;3.712;2022-09-09T12:51:24;11.38;;;10.48;;
23370;SDS011;11858;51.056;3.712;2022-09-09T12:53:58;11.25;;;10.18;;
23370;SDS011;11858;51.056;3.712;2022-09-09T12:56:25;11.82;;;10.80;;
23370;SDS011;11858;51.056;3.712;2022-09-09T12:58:55;11.20;;;10.20;;
23370;SDS011;11858;51.056;3.712;2022-09-09T13:01:29;11.23;;;10.20;;
23370;SDS011;11858;51.056;3.712;2022-09-09T13:03:57;11.20;;;10.15;;
23370;SDS011;11858;51.056;3.712;2022-09-09T13:06:27;11.30;;;10.20;;
23370;SDS011;11858;51.056;3.712;2022-09-09T13:08:55;12.23;;;11.13;;
23370;SDS011;11858;51.056;3.712;2022-09-09T13:11:26;11.55;;;10.07;;
23370;SDS011;11858;51.056;3.712;2022-09-09T13:13:54;11.35;;;10.35;;
23370;SDS011;11858;51.056;3.712;2022-09-09T13:16:22;10.80;;;9.90;;
23370;SDS011;11858;51.056;3.712;2022-09-09T13:18:55;12.10;;;11.00;;
23370;SDS011;11858;51.056;3.712;2022-09-09T13:21:30;11.32;;;10.48;;
23370;SDS011;11858;51.056;3.712;2022-09-09T13:24:00;11.48;;;10.38;;
23370;SDS011;11858;51.056;3.712;2022-09-09T13:26:29;12.82;;;11.80;;
23370;SDS011;11858;51.056;3.712;2022-09-09T13:28:55;13.93;;;12.82;;
23370;SDS011;11858;51.056;3.712;2022-09-09T13:31:42;12.73;;;11.73;;
23370;SDS011;11858;51.056;3.712;2022-09-09T13:34:12;12.70;;;11.60;;
23370;SDS011;11858;51.056;3.712;2022-09-09T13:36:39;13.00;;;12.10;;
23370;SDS011;11858;51.056;3.712;2022-09-09T13:39:13;12.48;;;11.63;;
23370;SDS011;11858;51.056;3.712;2022-09-09T13:41:43;13.07;;;12.07;;
23370;SDS011;11858;51.056;3.712;2022-09-09T13:49:42;13.63;;;12.15;;
23370;SDS011;11858;51.056;3.712;2022-09-09T13:52:14;12.60;;;11.43;;
23370;SDS011;11858;51.056;3.712;2022-09-09T13:54:47;13.27;;;11.98;;
23370;SDS011;11858;51.056;3.712;2022-09-09T13:59:43;12.10;;;10.90;;
23370;SDS011;11858;51.056;3.712;2022-09-09T14:02:10;13.15;;;12.02;;
23370;SDS011;11858;51.056;3.712;2022-09-09T14:04:36;13.55;;;12.48;;
23370;SDS011;11858;51.056;3.712;2022-09-09T14:07:02;14.15;;;13.05;;
23370;SDS011;11858;51.056;3.712;2022-09-09T14:09:28;14.20;;;12.90;;
23370;SDS011;11858;51.056;3.712;2022-09-09T14:11:54;13.45;;;12.45;;
23370;SDS011;11858;51.056;3.712;2022-09-09T14:14:20;14.05;;;12.98;;
23370;SDS011;11858;51.056;3.712;2022-09-09T14:16:46;13.63;;;12.50;;
23370;SDS011;11858;51.056;3.712;2022-09-09T14:19:12;14.32;;;12.63;;
23370;SDS011;11858;51.056;3.712;2022-09-09T14:21:38;13.95;;;12.60;;
23370;SDS011;11858;51.056;3.712;2022-09-09T14:24:04;13.30;;;12.20;;
23370;SDS011;11858;51.056;3.712;2022-09-09T14:26:30;12.65;;;11.75;;
23370;SDS011;11858;51.056;3.712;2022-09-09T14:28:57;13.95;;;12.85;;
23370;SDS011;11858;51.056;3.712;2022-09-09T14:31:23;16.42;;;14.95;;
23370;SDS011;11858;51.056;3.712;2022-09-09T14:33:49;14.02;;;13.10;;
23370;SDS011;11858;51.056;3.712;2022-09-09T14:36:15;14.15;;;12.93;;
23370;SDS011;11858;51.056;3.712;2022-09-09T14:38:41;13.77;;;12.68;;
23370;SDS011;11858;51.056;3.712;2022-09-09T14:41:12;13.88;;;12.82;;
23370;SDS011;11858;51.056;3.712;2022-09-09T14:43:41;14.32;;;12.93;;
23370;SDS011;11858;51.056;3.712;2022-09-09T14:46:08;14.50;;;13.27;;
23370;SDS011;11858;51.056;3.712;2022-09-09T14:48:36;14.13;;;13.02;;
23370;SDS011;11858;51.056;3.712;2022-09-09T14:51:13;14.77;;;13.48;;
23370;SDS011;11858;51.056;3.712;2022-09-09T14:53:41;13.82;;;12.73;;
23370;SDS011;11858;51.056;3.712;2022-09-09T14:56:08;14.80;;;13.70;;
23370;SDS011;11858;51.056;3.712;2022-09-09T14:58:34;14.73;;;13.60;;
23370;SDS011;11858;51.056;3.712;2022-09-09T15:01:12;14.90;;;13.80;;
23370;SDS011;11858;51.056;3.712;2022-09-09T15:03:39;14.55;;;13.55;;
23370;SDS011;11858;51.056;3.712;2022-09-09T15:08:36;21.13;;;14.23;;
23370;SDS011;11858;51.056;3.712;2022-09-09T15:11:04;14.52;;;13.07;;
23370;SDS011;11858;51.056;3.712;2022-09-09T15:13:35;14.85;;;13.60;;
23370;SDS011;11858;51.056;3.712;2022-09-09T15:16:06;15.20;;;14.00;;
23370;SDS011;11858;51.056;3.712;2022-09-09T15:18:33;14.90;;;13.55;;
23370;SDS011;11858;51.056;3.712;2022-09-09T15:21:01;15.43;;;14.15;;
23370;SDS011;11858;51.056;3.712;2022-09-09T15:23:33;14.13;;;13.02;;
23370;SDS011;11858;51.056;3.712;2022-09-09T15:25:59;15.83;;;14.37;;
23370;SDS011;11858;51.056;3.712;2022-09-09T15:28:26;15.02;;;13.50;;
23370;SDS011;11858;51.056;3.712;2022-09-09T15:30:52;14.98;;;13.65;;
23370;SDS011;11858;51.056;3.712;2022-09-09T15:33:19;15.20;;;14.00;;
23370;SDS011;11858;51.056;3.712;2022-09-09T15:35:46;15.45;;;14.07;;
23370;SDS011;11858;51.056;3.712;2022-09-09T15:38:14;14.50;;;13.20;;
23370;SDS011;11858;51.056;3.712;2022-09-09T15:40:42;14.40;;;13.30;;
23370;SDS011;11858;51.056;3.712;2022-09-09T15:43:08;14.60;;;13.30;;
23370;SDS011;11858;51.056;3.712;2022-09-09T15:45:35;15.98;;;14.45;;
23370;SDS011;11858;51.056;3.712;2022-09-09T15:48:02;14.40;;;13.40;;
23370;SDS011;11858;51.056;3.712;2022-09-09T15:50:29;14.63;;;13.40;;
23370;SDS011;11858;51.056;3.712;2022-09-09T15:52:58;14.85;;;13.70;;
23370;SDS011;11858;51.056;3.712;2022-09-09T15:55:24;14.75;;;13.30;;
23370;SDS011;11858;51.056;3.712;2022-09-09T15:57:50;14.63;;;13.43;;
23370;SDS011;11858;51.056;3.712;2022-09-09T16:00:17;13.10;;;12.20;;
23370;SDS011;11858;51.056;3.712;2022-09-09T16:02:47;14.95;;;13.95;;
23370;SDS011;11858;51.056;3.712;2022-09-09T16:05:14;15.38;;;14.23;;
23370;SDS011;11858;51.056;3.712;2022-09-09T16:07:39;15.68;;;14.30;;
23370;SDS011;11858;51.056;3.712;2022-09-09T16:10:07;15.15;;;14.05;;
23370;SDS011;11858;51.056;3.712;2022-09-09T16:12:33;15.57;;;14.38;;
23370;SDS011;11858;51.056;3.712;2022-09-09T16:15:00;15.18;;;14.10;;
23370;SDS011;11858;51.056;3.712;2022-09-09T16:17:26;15.50;;;14.40;;
23370;SDS011;11858;51.056;3.712;2022-09-09T16:19:52;14.82;;;13.63;;
23370;SDS011;11858;51.056;3.712;2022-09-09T16:22:19;15.45;;;14.23;;
23370;SDS011;11858;51.056;3.712;2022-09-09T16:24:45;15.35;;;13.98;;
23370;SDS011;11858;51.056;3.712;2022-09-09T16:27:11;15.50;;;14.40;;
23370;SDS011;11858;51.056;3.712;2022-09-09T16:29:37;15.88;;;14.68;;
23370;SDS011;11858;51.056;3.712;2022-09-09T16:32:06;15.85;;;14.50;;
23370;SDS011;11858;51.056;3.712;2022-09-09T16:34:35;15.15;;;13.82;;
23370;SDS011;11858;51.056;3.712;2022-09-09T16:37:01;15.07;;;13.80;;
23370;SDS011;11858;51.056;3.712;2022-09-09T16:39:27;15.15;;;13.60;;
23370;SDS011;11858;51.056;3.712;2022-09-09T16:41:52;15.93;;;14.43;;
23370;SDS011;11858;51.056;3.712;2022-09-09T16:44:18;15.35;;;13.75;;
23370;SDS011;11858;51.056;3.712;2022-09-09T16:46:45;14.35;;;13.20;;
23370;SDS011;11858;51.056;3.712;2022-09-09T16:49:13;14.80;;;13.55;;
23370;SDS011;11858;51.056;3.712;2022-09-09T16:51:42;17.02;;;14.30;;
23370;SDS011;11858;51.056;3.712;2022-09-09T16:54:09;15.85;;;14.43;;
23370;SDS011;11858;51.056;3.712;2022-09-09T16:56:37;15.90;;;14.50;;
23370;SDS011;11858;51.056;3.712;2022-09-09T16:59:08;16.42;;;14.80;;
23370;SDS011;11858;51.056;3.712;2022-09-09T17:01:39;15.60;;;14.27;;
23370;SDS011;11858;51.056;3.712;2022-09-09T17:04:07;15.95;;;14.45;;
23370;SDS011;11858;51.056;3.712;2022-09-09T17:06:34;41.25;;;37.65;;
23370;SDS011;11858;51.056;3.712;2022-09-09T17:09:03;44.92;;;40.53;;
23370;SDS011;11858;51.056;3.712;2022-09-09T17:11:30;60.50;;;55.33;;
23370;SDS011;11858;51.056;3.712;2022-09-09T17:13:56;61.72;;;55.30;;
23370;SDS011;11858;51.056;3.712;2022-09-09T17:16:24;59.28;;;54.15;;
23370;SDS011;11858;51.056;3.712;2022-09-09T17:18:52;51.30;;;46.70;;
23370;SDS011;11858;51.056;3.712;2022-09-09T17:21:20;51.63;;;46.85;;
23370;SDS011;11858;51.056;3.712;2022-09-09T17:23:50;50.40;;;45.38;;
23370;SDS011;11858;51.056;3.712;2022-09-09T17:26:17;48.25;;;43.95;;
23370;SDS011;11858;51.056;3.712;2022-09-09T17:28:45;47.25;;;42.95;;
23370;SDS011;11858;51.056;3.712;2022-09-09T17:31:13;47.65;;;43.15;;
23370;SDS011;11858;51.056;3.712;2022-09-09T17:33:46;46.47;;;42.08;;
23370;SDS011;11858;51.056;3.712;2022-09-09T17:36:17;42.75;;;38.90;;
23370;SDS011;11858;51.056;3.712;2022-09-09T17:38:46;41.78;;;38.35;;
23370;SDS011;11858;51.056;3.712;2022-09-09T17:41:14;42.70;;;38.03;;
23370;SDS011;11858;51.056;3.712;2022-09-09T17:43:52;38.50;;;35.03;;
23370;SDS011;11858;51.056;3.712;2022-09-09T17:46:23;46.20;;;42.40;;